sensor_id;sensor_type;location;lat;lon;timestamp;P1;durP1;ratioP1;P2;durP2;ratioP2
67595;SDS011;54410;48.694;8.934;2023-05-07T00:00:36;2.85;;;2.40;;
67595;SDS011;54410;48.694;8.934;2023-05-07T00:03:02;3.53;;;2.53;;
67595;SDS011;54410;48.694;8.934;2023-05-07T00:05:28;4.07;;;2.30;;
67595;SDS011;54410;48.694;8.934;2023-05-07T00:07:54;2.72;;;2.03;;
67595;SDS011;54410;48.694;8.934;2023-05-07T00:10:20;2.90;;;2.22;;
67595;SDS011;54410;48.694;8.934;2023-05-07T00:12:46;3.50;;;2.35;;
67595;SDS011;54410;48.694;8.934;2023-05-07T00:15:12;3.20;;;2.30;;
67595;SDS011;54410;48.694;8.934;2023-05-07T00:17:38;2.92;;;2.53;;
67595;SDS011;54410;48.694;8.934;2023-05-07T00:20:04;2.65;;;2.08;;
67595;SDS011;54410;48.694;8.934;2023-05-07T00:22:31;1.70;;;1.60;;
67595;SDS011;54410;48.694;8.934;2023-05-07T00:24:57;2.65;;;2.30;;
67595;SDS011;54410;48.694;8.934;2023-05-07T00:27:24;7.13;;;2.20;;
67595;SDS011;54410;48.694;8.934;2023-05-07T00:29:50;3.40;;;2.40;;
67595;SDS011;54410;48.694;8.934;2023-05-07T00:32:15;2.55;;;2.20;;
67595;SDS011;54410;48.694;8.934;2023-05-07T00:34:42;3.40;;;2.17;;
67595;SDS011;54410;48.694;8.934;2023-05-07T00:37:08;4.97;;;2.28;;
67595;SDS011;54410;48.694;8.934;2023-05-07T00:39:34;3.75;;;2.40;;
67595;SDS011;54410;48.694;8.934;2023-05-07T00:42:00;4.10;;;2.60;;
67595;SDS011;54410;48.694;8.934;2023-05-07T00:44:26;3.33;;;2.85;;
67595;SDS011;54410;48.694;8.934;2023-05-07T00:46:52;3.83;;;2.50;;
67595;SDS011;54410;48.694;8.934;2023-05-07T00:49:18;4.15;;;2.50;;
67595;SDS011;54410;48.694;8.934;2023-05-07T00:51:43;4.45;;;2.60;;
67595;SDS011;54410;48.694;8.934;2023-05-07T00:54:10;3.25;;;2.78;;
67595;SDS011;54410;48.694;8.934;2023-05-07T00:56:36;3.70;;;2.38;;
67595;SDS011;54410;48.694;8.934;2023-05-07T00:59:04;2.60;;;2.40;;
67595;SDS011;54410;48.694;8.934;2023-05-07T01:01:30;4.90;;;2.60;;
67595;SDS011;54410;48.694;8.934;2023-05-07T01:03:56;2.95;;;2.45;;
67595;SDS011;54410;48.694;8.934;2023-05-07T01:06:23;2.83;;;2.20;;
67595;SDS011;54410;48.694;8.934;2023-05-07T01:08:49;3.58;;;2.35;;
67595;SDS011;54410;48.694;8.934;2023-05-07T01:11:17;2.30;;;2.10;;
67595;SDS011;54410;48.694;8.934;2023-05-07T01:13:45;2.35;;;2.00;;
67595;SDS011;54410;48.694;8.934;2023-05-07T01:16:11;2.90;;;2.40;;
67595;SDS011;54410;48.694;8.934;2023-05-07T01:18:37;2.10;;;1.90;;
67595;SDS011;54410;48.694;8.934;2023-05-07T01:21:04;2.63;;;2.13;;
67595;SDS011;54410;48.694;8.934;2023-05-07T01:23:30;5.40;;;2.20;;
67595;SDS011;54410;48.694;8.934;2023-05-07T01:25:56;2.55;;;2.20;;
67595;SDS011;54410;48.694;8.934;2023-05-07T01:28:22;3.55;;;2.63;;
67595;SDS011;54410;48.694;8.934;2023-05-07T01:30:52;3.15;;;2.40;;
67595;SDS011;54410;48.694;8.934;2023-05-07T01:33:20;2.45;;;1.98;;
67595;SDS011;54410;48.694;8.934;2023-05-07T01:35:48;4.20;;;2.38;;
67595;SDS011;54410;48.694;8.934;2023-05-07T01:38:16;3.33;;;2.47;;
67595;SDS011;54410;48.694;8.934;2023-05-07T01:40:42;3.72;;;2.53;;
67595;SDS011;54410;48.694;8.934;2023-05-07T01:43:08;3.50;;;2.55;;
67595;SDS011;54410;48.694;8.934;2023-05-07T01:45:34;3.38;;;2.35;;
67595;SDS011;54410;48.694;8.934;2023-05-07T01:48:00;3.58;;;2.10;;
67595;SDS011;54410;48.694;8.934;2023-05-07T01:50:27;5.22;;;2.53;;
67595;SDS011;54410;48.694;8.934;2023-05-07T01:52:52;2.40;;;2.10;;
67595;SDS011;54410;48.694;8.934;2023-05-07T01:55:18;3.38;;;2.20;;
67595;SDS011;54410;48.694;8.934;2023-05-07T01:57:44;2.58;;;2.38;;
67595;SDS011;54410;48.694;8.934;2023-05-07T02:00:10;4.32;;;2.40;;
67595;SDS011;54410;48.694;8.934;2023-05-07T02:02:36;3.03;;;2.42;;
67595;SDS011;54410;48.694;8.934;2023-05-07T02:05:03;3.30;;;2.42;;
67595;SDS011;54410;48.694;8.934;2023-05-07T02:07:29;2.30;;;2.10;;
67595;SDS011;54410;48.694;8.934;2023-05-07T02:09:55;3.17;;;2.40;;
67595;SDS011;54410;48.694;8.934;2023-05-07T02:12:21;3.47;;;2.83;;
67595;SDS011;54410;48.694;8.934;2023-05-07T02:14:47;5.50;;;2.50;;
67595;SDS011;54410;48.694;8.934;2023-05-07T02:17:13;2.72;;;2.47;;
67595;SDS011;54410;48.694;8.934;2023-05-07T02:19:39;4.32;;;2.58;;
67595;SDS011;54410;48.694;8.934;2023-05-07T02:22:05;3.65;;;2.55;;
67595;SDS011;54410;48.694;8.934;2023-05-07T02:24:31;3.42;;;2.33;;
67595;SDS011;54410;48.694;8.934;2023-05-07T02:26:57;3.60;;;2.67;;
67595;SDS011;54410;48.694;8.934;2023-05-07T02:29:23;2.75;;;2.30;;
67595;SDS011;54410;48.694;8.934;2023-05-07T02:31:49;4.50;;;2.80;;
67595;SDS011;54410;48.694;8.934;2023-05-07T02:34:18;2.45;;;2.15;;
67595;SDS011;54410;48.694;8.934;2023-05-07T02:36:43;4.53;;;2.30;;
67595;SDS011;54410;48.694;8.934;2023-05-07T02:39:10;3.00;;;2.53;;
67595;SDS011;54410;48.694;8.934;2023-05-07T02:41:36;3.90;;;3.00;;
67595;SDS011;54410;48.694;8.934;2023-05-07T02:44:02;3.00;;;2.35;;
67595;SDS011;54410;48.694;8.934;2023-05-07T02:46:27;3.55;;;3.15;;
67595;SDS011;54410;48.694;8.934;2023-05-07T02:48:53;2.90;;;2.30;;
67595;SDS011;54410;48.694;8.934;2023-05-07T02:51:20;3.15;;;2.40;;
67595;SDS011;54410;48.694;8.934;2023-05-07T02:53:46;6.03;;;2.60;;
67595;SDS011;54410;48.694;8.934;2023-05-07T02:56:12;4.32;;;2.20;;
67595;SDS011;54410;48.694;8.934;2023-05-07T02:58:37;4.55;;;2.67;;
67595;SDS011;54410;48.694;8.934;2023-05-07T03:01:04;2.67;;;2.10;;
67595;SDS011;54410;48.694;8.934;2023-05-07T03:03:30;3.85;;;3.10;;
67595;SDS011;54410;48.694;8.934;2023-05-07T03:05:56;2.63;;;2.42;;
67595;SDS011;54410;48.694;8.934;2023-05-07T03:08:22;2.88;;;2.40;;
67595;SDS011;54410;48.694;8.934;2023-05-07T03:10:48;5.82;;;2.97;;
67595;SDS011;54410;48.694;8.934;2023-05-07T03:13:14;4.82;;;2.40;;
67595;SDS011;54410;48.694;8.934;2023-05-07T03:15:40;4.22;;;2.30;;
67595;SDS011;54410;48.694;8.934;2023-05-07T03:18:06;2.42;;;2.22;;
67595;SDS011;54410;48.694;8.934;2023-05-07T03:20:32;3.55;;;2.80;;
67595;SDS011;54410;48.694;8.934;2023-05-07T03:22:58;3.90;;;2.10;;
67595;SDS011;54410;48.694;8.934;2023-05-07T03:25:24;4.55;;;3.17;;
67595;SDS011;54410;48.694;8.934;2023-05-07T03:27:50;2.45;;;1.95;;
67595;SDS011;54410;48.694;8.934;2023-05-07T03:30:16;6.30;;;2.80;;
67595;SDS011;54410;48.694;8.934;2023-05-07T03:32:42;4.53;;;2.53;;
67595;SDS011;54410;48.694;8.934;2023-05-07T03:35:08;4.22;;;2.97;;
67595;SDS011;54410;48.694;8.934;2023-05-07T03:37:34;2.97;;;2.63;;
67595;SDS011;54410;48.694;8.934;2023-05-07T03:40:00;3.85;;;3.20;;
67595;SDS011;54410;48.694;8.934;2023-05-07T03:42:27;4.22;;;3.15;;
67595;SDS011;54410;48.694;8.934;2023-05-07T03:44:53;4.43;;;3.13;;
67595;SDS011;54410;48.694;8.934;2023-05-07T03:47:19;3.28;;;2.80;;
67595;SDS011;54410;48.694;8.934;2023-05-07T03:49:45;4.88;;;3.03;;
67595;SDS011;54410;48.694;8.934;2023-05-07T03:52:13;3.70;;;2.63;;
67595;SDS011;54410;48.694;8.934;2023-05-07T03:54:39;5.10;;;3.53;;
67595;SDS011;54410;48.694;8.934;2023-05-07T03:57:05;3.85;;;3.10;;
67595;SDS011;54410;48.694;8.934;2023-05-07T03:59:31;3.10;;;2.85;;
67595;SDS011;54410;48.694;8.934;2023-05-07T04:01:57;4.32;;;2.92;;
67595;SDS011;54410;48.694;8.934;2023-05-07T04:04:23;3.28;;;2.60;;
67595;SDS011;54410;48.694;8.934;2023-05-07T04:06:49;5.10;;;3.10;;
67595;SDS011;54410;48.694;8.934;2023-05-07T04:09:16;3.50;;;2.78;;
67595;SDS011;54410;48.694;8.934;2023-05-07T04:11:42;3.45;;;2.75;;
67595;SDS011;54410;48.694;8.934;2023-05-07T04:14:08;4.72;;;2.97;;
67595;SDS011;54410;48.694;8.934;2023-05-07T04:16:35;5.10;;;3.07;;
67595;SDS011;54410;48.694;8.934;2023-05-07T04:19:01;3.75;;;2.72;;
67595;SDS011;54410;48.694;8.934;2023-05-07T04:21:27;5.97;;;2.83;;
67595;SDS011;54410;48.694;8.934;2023-05-07T04:23:53;4.65;;;2.60;;
67595;SDS011;54410;48.694;8.934;2023-05-07T04:26:19;4.28;;;3.00;;
67595;SDS011;54410;48.694;8.934;2023-05-07T04:28:46;5.63;;;2.90;;
67595;SDS011;54410;48.694;8.934;2023-05-07T04:31:12;4.55;;;3.40;;
67595;SDS011;54410;48.694;8.934;2023-05-07T04:33:38;3.42;;;2.42;;
67595;SDS011;54410;48.694;8.934;2023-05-07T04:36:04;4.10;;;3.30;;
67595;SDS011;54410;48.694;8.934;2023-05-07T04:38:30;3.30;;;3.00;;
67595;SDS011;54410;48.694;8.934;2023-05-07T04:40:57;3.50;;;2.45;;
67595;SDS011;54410;48.694;8.934;2023-05-07T04:43:23;3.60;;;2.60;;
67595;SDS011;54410;48.694;8.934;2023-05-07T04:45:50;4.05;;;2.63;;
67595;SDS011;54410;48.694;8.934;2023-05-07T04:48:17;6.45;;;2.50;;
67595;SDS011;54410;48.694;8.934;2023-05-07T04:50:44;3.15;;;2.35;;
67595;SDS011;54410;48.694;8.934;2023-05-07T04:53:10;3.33;;;2.60;;
67595;SDS011;54410;48.694;8.934;2023-05-07T04:55:36;5.65;;;2.83;;
67595;SDS011;54410;48.694;8.934;2023-05-07T04:58:02;3.28;;;2.15;;
67595;SDS011;54410;48.694;8.934;2023-05-07T05:00:29;3.00;;;2.15;;
67595;SDS011;54410;48.694;8.934;2023-05-07T05:02:55;3.10;;;2.17;;
67595;SDS011;54410;48.694;8.934;2023-05-07T05:05:21;1.90;;;1.77;;
67595;SDS011;54410;48.694;8.934;2023-05-07T05:07:47;3.63;;;2.40;;
67595;SDS011;54410;48.694;8.934;2023-05-07T05:10:13;2.78;;;2.10;;
67595;SDS011;54410;48.694;8.934;2023-05-07T05:12:39;2.85;;;2.20;;
67595;SDS011;54410;48.694;8.934;2023-05-07T05:15:05;3.80;;;2.20;;
67595;SDS011;54410;48.694;8.934;2023-05-07T05:17:31;4.03;;;1.83;;
67595;SDS011;54410;48.694;8.934;2023-05-07T05:19:59;3.80;;;2.10;;
67595;SDS011;54410;48.694;8.934;2023-05-07T05:22:25;8.68;;;2.78;;
67595;SDS011;54410;48.694;8.934;2023-05-07T05:24:54;4.45;;;1.92;;
67595;SDS011;54410;48.694;8.934;2023-05-07T05:27:20;1.73;;;1.48;;
67595;SDS011;54410;48.694;8.934;2023-05-07T05:29:45;3.80;;;1.70;;
67595;SDS011;54410;48.694;8.934;2023-05-07T05:32:11;2.05;;;1.83;;
67595;SDS011;54410;48.694;8.934;2023-05-07T05:34:37;3.45;;;1.90;;
67595;SDS011;54410;48.694;8.934;2023-05-07T05:37:03;2.85;;;2.20;;
67595;SDS011;54410;48.694;8.934;2023-05-07T05:39:29;3.22;;;2.67;;
67595;SDS011;54410;48.694;8.934;2023-05-07T05:41:55;3.22;;;2.92;;
67595;SDS011;54410;48.694;8.934;2023-05-07T05:44:22;3.60;;;2.78;;
67595;SDS011;54410;48.694;8.934;2023-05-07T05:46:48;3.92;;;3.25;;
67595;SDS011;54410;48.694;8.934;2023-05-07T05:49:14;3.15;;;2.53;;
67595;SDS011;54410;48.694;8.934;2023-05-07T05:51:40;4.45;;;2.00;;
67595;SDS011;54410;48.694;8.934;2023-05-07T05:54:06;3.10;;;2.55;;
67595;SDS011;54410;48.694;8.934;2023-05-07T05:56:31;3.67;;;2.20;;
67595;SDS011;54410;48.694;8.934;2023-05-07T05:58:57;2.72;;;2.00;;
67595;SDS011;54410;48.694;8.934;2023-05-07T06:01:23;2.03;;;1.83;;
67595;SDS011;54410;48.694;8.934;2023-05-07T06:03:49;3.60;;;2.17;;
67595;SDS011;54410;48.694;8.934;2023-05-07T06:06:14;3.92;;;2.45;;
67595;SDS011;54410;48.694;8.934;2023-05-07T06:08:42;3.55;;;1.80;;
67595;SDS011;54410;48.694;8.934;2023-05-07T06:11:07;2.33;;;1.80;;
67595;SDS011;54410;48.694;8.934;2023-05-07T06:13:33;3.67;;;2.17;;
67595;SDS011;54410;48.694;8.934;2023-05-07T06:15:59;2.38;;;1.77;;
67595;SDS011;54410;48.694;8.934;2023-05-07T06:18:25;2.10;;;1.90;;
67595;SDS011;54410;48.694;8.934;2023-05-07T06:20:51;2.03;;;1.73;;
67595;SDS011;54410;48.694;8.934;2023-05-07T06:23:17;2.70;;;2.03;;
67595;SDS011;54410;48.694;8.934;2023-05-07T06:25:49;2.65;;;1.90;;
67595;SDS011;54410;48.694;8.934;2023-05-07T06:28:16;1.92;;;1.83;;
67595;SDS011;54410;48.694;8.934;2023-05-07T06:30:42;2.72;;;2.08;;
67595;SDS011;54410;48.694;8.934;2023-05-07T06:33:08;2.70;;;2.50;;
67595;SDS011;54410;48.694;8.934;2023-05-07T06:35:34;2.90;;;2.00;;
67595;SDS011;54410;48.694;8.934;2023-05-07T06:38:00;2.90;;;2.35;;
67595;SDS011;54410;48.694;8.934;2023-05-07T06:40:26;2.95;;;2.03;;
67595;SDS011;54410;48.694;8.934;2023-05-07T06:42:52;3.90;;;2.15;;
67595;SDS011;54410;48.694;8.934;2023-05-07T06:45:17;2.97;;;2.10;;
67595;SDS011;54410;48.694;8.934;2023-05-07T06:47:44;2.28;;;2.03;;
67595;SDS011;54410;48.694;8.934;2023-05-07T06:50:09;2.63;;;1.92;;
67595;SDS011;54410;48.694;8.934;2023-05-07T06:52:35;2.25;;;1.80;;
67595;SDS011;54410;48.694;8.934;2023-05-07T06:55:01;2.53;;;1.90;;
67595;SDS011;54410;48.694;8.934;2023-05-07T06:57:27;3.10;;;1.85;;
67595;SDS011;54410;48.694;8.934;2023-05-07T06:59:53;1.92;;;1.58;;
67595;SDS011;54410;48.694;8.934;2023-05-07T07:02:19;1.90;;;1.70;;
67595;SDS011;54410;48.694;8.934;2023-05-07T07:04:45;2.88;;;1.65;;
67595;SDS011;54410;48.694;8.934;2023-05-07T07:07:11;1.95;;;1.80;;
67595;SDS011;54410;48.694;8.934;2023-05-07T07:09:36;6.15;;;1.75;;
67595;SDS011;54410;48.694;8.934;2023-05-07T07:12:02;1.65;;;1.30;;
67595;SDS011;54410;48.694;8.934;2023-05-07T07:14:28;1.95;;;1.30;;
67595;SDS011;54410;48.694;8.934;2023-05-07T07:16:54;2.13;;;1.63;;
67595;SDS011;54410;48.694;8.934;2023-05-07T07:19:20;1.83;;;1.52;;
67595;SDS011;54410;48.694;8.934;2023-05-07T07:21:46;2.60;;;1.40;;
67595;SDS011;54410;48.694;8.934;2023-05-07T07:24:12;3.05;;;1.70;;
67595;SDS011;54410;48.694;8.934;2023-05-07T07:26:38;2.50;;;1.48;;
67595;SDS011;54410;48.694;8.934;2023-05-07T07:29:05;1.95;;;1.70;;
67595;SDS011;54410;48.694;8.934;2023-05-07T07:31:31;1.73;;;1.63;;
67595;SDS011;54410;48.694;8.934;2023-05-07T07:33:57;1.92;;;1.60;;
67595;SDS011;54410;48.694;8.934;2023-05-07T07:36:24;1.90;;;1.55;;
67595;SDS011;54410;48.694;8.934;2023-05-07T07:38:51;1.75;;;1.30;;
67595;SDS011;54410;48.694;8.934;2023-05-07T07:41:17;1.95;;;1.75;;
67595;SDS011;54410;48.694;8.934;2023-05-07T07:43:43;1.75;;;1.65;;
67595;SDS011;54410;48.694;8.934;2023-05-07T07:46:09;2.00;;;1.88;;
67595;SDS011;54410;48.694;8.934;2023-05-07T07:48:35;2.03;;;1.80;;
67595;SDS011;54410;48.694;8.934;2023-05-07T07:51:01;2.38;;;1.98;;
67595;SDS011;54410;48.694;8.934;2023-05-07T07:53:27;1.90;;;1.70;;
67595;SDS011;54410;48.694;8.934;2023-05-07T07:55:53;2.00;;;1.75;;
67595;SDS011;54410;48.694;8.934;2023-05-07T07:58:19;2.58;;;1.63;;
67595;SDS011;54410;48.694;8.934;2023-05-07T08:00:45;8.80;;;1.95;;
67595;SDS011;54410;48.694;8.934;2023-05-07T08:03:12;1.95;;;1.60;;
67595;SDS011;54410;48.694;8.934;2023-05-07T08:05:37;2.15;;;1.70;;
67595;SDS011;54410;48.694;8.934;2023-05-07T08:08:03;3.22;;;1.77;;
67595;SDS011;54410;48.694;8.934;2023-05-07T08:10:29;2.70;;;1.60;;
67595;SDS011;54410;48.694;8.934;2023-05-07T08:12:59;1.40;;;1.27;;
67595;SDS011;54410;48.694;8.934;2023-05-07T08:15:25;1.38;;;1.23;;
67595;SDS011;54410;48.694;8.934;2023-05-07T08:17:51;1.60;;;1.50;;
67595;SDS011;54410;48.694;8.934;2023-05-07T08:20:17;2.10;;;1.70;;
67595;SDS011;54410;48.694;8.934;2023-05-07T08:22:42;6.05;;;1.92;;
67595;SDS011;54410;48.694;8.934;2023-05-07T08:25:08;2.13;;;1.95;;
67595;SDS011;54410;48.694;8.934;2023-05-07T08:27:34;3.20;;;1.90;;
67595;SDS011;54410;48.694;8.934;2023-05-07T08:30:01;1.70;;;1.60;;
67595;SDS011;54410;48.694;8.934;2023-05-07T08:32:27;2.60;;;1.70;;
67595;SDS011;54410;48.694;8.934;2023-05-07T08:34:53;2.42;;;1.40;;
67595;SDS011;54410;48.694;8.934;2023-05-07T08:37:19;2.25;;;1.70;;
67595;SDS011;54410;48.694;8.934;2023-05-07T08:39:45;2.85;;;1.40;;
67595;SDS011;54410;48.694;8.934;2023-05-07T08:42:11;2.85;;;1.30;;
67595;SDS011;54410;48.694;8.934;2023-05-07T08:44:37;1.30;;;1.20;;
67595;SDS011;54410;48.694;8.934;2023-05-07T08:47:03;2.58;;;1.25;;
67595;SDS011;54410;48.694;8.934;2023-05-07T08:49:32;1.38;;;1.27;;
67595;SDS011;54410;48.694;8.934;2023-05-07T08:51:59;1.38;;;1.20;;
67595;SDS011;54410;48.694;8.934;2023-05-07T08:54:25;1.83;;;1.30;;
67595;SDS011;54410;48.694;8.934;2023-05-07T08:56:51;1.60;;;1.45;;
67595;SDS011;54410;48.694;8.934;2023-05-07T08:59:17;3.28;;;1.50;;
67595;SDS011;54410;48.694;8.934;2023-05-07T09:01:43;3.63;;;1.90;;
67595;SDS011;54410;48.694;8.934;2023-05-07T09:04:09;2.22;;;1.83;;
67595;SDS011;54410;48.694;8.934;2023-05-07T09:06:37;1.60;;;1.50;;
67595;SDS011;54410;48.694;8.934;2023-05-07T09:09:06;1.73;;;1.40;;
67595;SDS011;54410;48.694;8.934;2023-05-07T09:11:33;1.45;;;1.30;;
67595;SDS011;54410;48.694;8.934;2023-05-07T09:13:59;3.22;;;1.50;;
67595;SDS011;54410;48.694;8.934;2023-05-07T09:16:26;3.03;;;1.90;;
67595;SDS011;54410;48.694;8.934;2023-05-07T09:18:53;2.08;;;1.55;;
67595;SDS011;54410;48.694;8.934;2023-05-07T09:21:19;1.80;;;1.35;;
67595;SDS011;54410;48.694;8.934;2023-05-07T09:23:48;1.58;;;1.48;;
67595;SDS011;54410;48.694;8.934;2023-05-07T09:26:15;1.70;;;1.60;;
67595;SDS011;54410;48.694;8.934;2023-05-07T09:28:41;1.83;;;1.42;;
67595;SDS011;54410;48.694;8.934;2023-05-07T09:31:07;2.67;;;1.27;;
67595;SDS011;54410;48.694;8.934;2023-05-07T09:33:33;1.55;;;1.20;;
67595;SDS011;54410;48.694;8.934;2023-05-07T09:36:02;2.80;;;1.30;;
67595;SDS011;54410;48.694;8.934;2023-05-07T09:38:28;1.63;;;1.38;;
67595;SDS011;54410;48.694;8.934;2023-05-07T09:43:32;4.68;;;1.70;;
67595;SDS011;54410;48.694;8.934;2023-05-07T09:46:02;1.17;;;1.17;;
67595;SDS011;54410;48.694;8.934;2023-05-07T09:48:29;3.08;;;1.10;;
67595;SDS011;54410;48.694;8.934;2023-05-07T09:50:55;1.58;;;1.48;;
67595;SDS011;54410;48.694;8.934;2023-05-07T09:53:25;1.23;;;1.13;;
67595;SDS011;54410;48.694;8.934;2023-05-07T09:55:51;1.38;;;1.27;;
67595;SDS011;54410;48.694;8.934;2023-05-07T09:58:19;2.25;;;1.15;;
67595;SDS011;54410;48.694;8.934;2023-05-07T10:00:46;1.25;;;1.08;;
67595;SDS011;54410;48.694;8.934;2023-05-07T10:03:11;3.08;;;0.90;;
67595;SDS011;54410;48.694;8.934;2023-05-07T10:05:39;1.75;;;1.35;;
67595;SDS011;54410;48.694;8.934;2023-05-07T10:08:05;1.67;;;1.10;;
67595;SDS011;54410;48.694;8.934;2023-05-07T10:10:32;2.05;;;1.45;;
67595;SDS011;54410;48.694;8.934;2023-05-07T10:12:59;1.77;;;1.33;;
67595;SDS011;54410;48.694;8.934;2023-05-07T10:15:27;1.48;;;1.20;;
67595;SDS011;54410;48.694;8.934;2023-05-07T10:17:54;1.55;;;1.27;;
67595;SDS011;54410;48.694;8.934;2023-05-07T10:20:20;1.40;;;1.30;;
67595;SDS011;54410;48.694;8.934;2023-05-07T10:22:47;3.17;;;1.52;;
67595;SDS011;54410;48.694;8.934;2023-05-07T10:25:14;1.73;;;1.23;;
67595;SDS011;54410;48.694;8.934;2023-05-07T10:27:40;2.10;;;1.25;;
67595;SDS011;54410;48.694;8.934;2023-05-07T10:32:40;1.98;;;1.23;;
67595;SDS011;54410;48.694;8.934;2023-05-07T10:35:10;2.40;;;1.70;;
67595;SDS011;54410;48.694;8.934;2023-05-07T10:37:38;2.00;;;1.50;;
67595;SDS011;54410;48.694;8.934;2023-05-07T10:40:05;2.65;;;1.77;;
67595;SDS011;54410;48.694;8.934;2023-05-07T10:42:32;2.05;;;1.60;;
67595;SDS011;54410;48.694;8.934;2023-05-07T10:44:57;2.20;;;1.48;;
67595;SDS011;54410;48.694;8.934;2023-05-07T10:47:23;1.50;;;1.40;;
67595;SDS011;54410;48.694;8.934;2023-05-07T10:52:22;2.33;;;1.40;;
67595;SDS011;54410;48.694;8.934;2023-05-07T10:55:36;1.98;;;1.52;;
67595;SDS011;54410;48.694;8.934;2023-05-07T10:57:42;2.20;;;1.38;;
67595;SDS011;54410;48.694;8.934;2023-05-07T11:00:55;1.65;;;1.55;;
67595;SDS011;54410;48.694;8.934;2023-05-07T11:05:30;1.63;;;1.52;;
67595;SDS011;54410;48.694;8.934;2023-05-07T11:07:56;2.13;;;1.50;;
67595;SDS011;54410;48.694;8.934;2023-05-07T11:10:22;1.45;;;1.15;;
67595;SDS011;54410;48.694;8.934;2023-05-07T11:12:49;1.58;;;1.38;;
67595;SDS011;54410;48.694;8.934;2023-05-07T11:15:33;1.88;;;1.33;;
67595;SDS011;54410;48.694;8.934;2023-05-07T11:18:00;1.52;;;1.20;;
67595;SDS011;54410;48.694;8.934;2023-05-07T11:23:54;1.75;;;1.60;;
67595;SDS011;54410;48.694;8.934;2023-05-07T11:26:07;1.55;;;1.30;;
67595;SDS011;54410;48.694;8.934;2023-05-07T11:28:39;6.85;;;4.75;;
67595;SDS011;54410;48.694;8.934;2023-05-07T11:31:06;3.35;;;2.35;;
67595;SDS011;54410;48.694;8.934;2023-05-07T11:33:33;4.72;;;1.70;;
67595;SDS011;54410;48.694;8.934;2023-05-07T11:35:59;2.33;;;1.52;;
67595;SDS011;54410;48.694;8.934;2023-05-07T11:38:26;1.90;;;1.80;;
67595;SDS011;54410;48.694;8.934;2023-05-07T11:40:53;2.25;;;1.70;;
67595;SDS011;54410;48.694;8.934;2023-05-07T11:43:20;2.88;;;2.03;;
67595;SDS011;54410;48.694;8.934;2023-05-07T11:45:46;2.17;;;1.98;;
67595;SDS011;54410;48.694;8.934;2023-05-07T11:48:12;3.35;;;2.47;;
67595;SDS011;54410;48.694;8.934;2023-05-07T11:50:59;3.65;;;1.92;;
67595;SDS011;54410;48.694;8.934;2023-05-07T11:53:25;2.63;;;2.10;;
67595;SDS011;54410;48.694;8.934;2023-05-07T11:55:55;3.10;;;1.95;;
67595;SDS011;54410;48.694;8.934;2023-05-07T11:58:22;2.03;;;1.38;;
67595;SDS011;54410;48.694;8.934;2023-05-07T12:00:52;1.98;;;1.35;;
67595;SDS011;54410;48.694;8.934;2023-05-07T12:03:18;1.30;;;1.08;;
67595;SDS011;54410;48.694;8.934;2023-05-07T12:05:44;1.40;;;1.30;;
67595;SDS011;54410;48.694;8.934;2023-05-07T12:08:20;2.08;;;1.83;;
67595;SDS011;54410;48.694;8.934;2023-05-07T12:10:49;2.85;;;1.98;;
67595;SDS011;54410;48.694;8.934;2023-05-07T12:13:23;2.80;;;1.92;;
67595;SDS011;54410;48.694;8.934;2023-05-07T12:15:53;2.20;;;1.80;;
67595;SDS011;54410;48.694;8.934;2023-05-07T12:18:19;2.83;;;1.80;;
67595;SDS011;54410;48.694;8.934;2023-05-07T12:20:45;3.33;;;2.30;;
67595;SDS011;54410;48.694;8.934;2023-05-07T12:23:12;2.20;;;2.00;;
67595;SDS011;54410;48.694;8.934;2023-05-07T12:25:38;3.30;;;1.70;;
67595;SDS011;54410;48.694;8.934;2023-05-07T12:28:05;2.63;;;2.05;;
67595;SDS011;54410;48.694;8.934;2023-05-07T12:30:31;2.60;;;2.00;;
67595;SDS011;54410;48.694;8.934;2023-05-07T12:32:58;6.93;;;2.35;;
67595;SDS011;54410;48.694;8.934;2023-05-07T12:35:27;4.15;;;1.90;;
67595;SDS011;54410;48.694;8.934;2023-05-07T12:37:59;4.55;;;1.92;;
67595;SDS011;54410;48.694;8.934;2023-05-07T12:40:38;2.33;;;1.45;;
67595;SDS011;54410;48.694;8.934;2023-05-07T12:45:45;2.40;;;1.60;;
67595;SDS011;54410;48.694;8.934;2023-05-07T12:48:12;1.90;;;1.45;;
67595;SDS011;54410;48.694;8.934;2023-05-07T12:50:37;3.30;;;1.50;;
67595;SDS011;54410;48.694;8.934;2023-05-07T12:53:03;1.63;;;1.50;;
67595;SDS011;54410;48.694;8.934;2023-05-07T12:58:08;2.42;;;1.83;;
67595;SDS011;54410;48.694;8.934;2023-05-07T13:00:40;3.00;;;1.75;;
67595;SDS011;54410;48.694;8.934;2023-05-07T13:03:08;2.30;;;1.83;;
67595;SDS011;54410;48.694;8.934;2023-05-07T13:05:34;2.50;;;1.52;;
67595;SDS011;54410;48.694;8.934;2023-05-07T13:08:00;2.17;;;1.60;;
67595;SDS011;54410;48.694;8.934;2023-05-07T13:10:26;2.28;;;1.67;;
67595;SDS011;54410;48.694;8.934;2023-05-07T13:12:52;2.67;;;2.08;;
67595;SDS011;54410;48.694;8.934;2023-05-07T13:15:18;2.10;;;1.90;;
67595;SDS011;54410;48.694;8.934;2023-05-07T13:17:44;2.10;;;1.70;;
67595;SDS011;54410;48.694;8.934;2023-05-07T13:20:10;3.78;;;1.83;;
67595;SDS011;54410;48.694;8.934;2023-05-07T13:22:37;3.42;;;1.95;;
67595;SDS011;54410;48.694;8.934;2023-05-07T13:25:03;4.00;;;1.88;;
67595;SDS011;54410;48.694;8.934;2023-05-07T13:27:29;2.47;;;2.10;;
67595;SDS011;54410;48.694;8.934;2023-05-07T13:29:55;2.85;;;2.00;;
67595;SDS011;54410;48.694;8.934;2023-05-07T13:32:21;1.85;;;1.75;;
67595;SDS011;54410;48.694;8.934;2023-05-07T13:34:47;3.45;;;1.83;;
67595;SDS011;54410;48.694;8.934;2023-05-07T13:37:13;3.15;;;2.35;;
67595;SDS011;54410;48.694;8.934;2023-05-07T13:39:39;2.33;;;1.88;;
67595;SDS011;54410;48.694;8.934;2023-05-07T13:42:05;2.28;;;2.08;;
67595;SDS011;54410;48.694;8.934;2023-05-07T13:44:31;2.35;;;2.00;;
67595;SDS011;54410;48.694;8.934;2023-05-07T13:46:57;2.28;;;2.10;;
67595;SDS011;54410;48.694;8.934;2023-05-07T13:49:22;3.35;;;2.40;;
67595;SDS011;54410;48.694;8.934;2023-05-07T13:51:49;5.00;;;2.30;;
67595;SDS011;54410;48.694;8.934;2023-05-07T13:54:15;3.40;;;2.20;;
67595;SDS011;54410;48.694;8.934;2023-05-07T13:56:40;3.83;;;2.67;;
67595;SDS011;54410;48.694;8.934;2023-05-07T13:59:07;3.58;;;2.83;;
67595;SDS011;54410;48.694;8.934;2023-05-07T14:01:33;3.78;;;2.15;;
67595;SDS011;54410;48.694;8.934;2023-05-07T14:03:59;6.07;;;2.65;;
67595;SDS011;54410;48.694;8.934;2023-05-07T14:06:25;4.07;;;2.38;;
67595;SDS011;54410;48.694;8.934;2023-05-07T14:08:51;3.00;;;2.70;;
67595;SDS011;54410;48.694;8.934;2023-05-07T14:11:17;3.92;;;2.92;;
67595;SDS011;54410;48.694;8.934;2023-05-07T14:13:43;4.13;;;2.80;;
67595;SDS011;54410;48.694;8.934;2023-05-07T14:16:09;3.08;;;2.13;;
67595;SDS011;54410;48.694;8.934;2023-05-07T14:18:35;2.38;;;2.00;;
67595;SDS011;54410;48.694;8.934;2023-05-07T14:21:04;3.85;;;2.20;;
67595;SDS011;54410;48.694;8.934;2023-05-07T14:23:31;4.75;;;2.30;;
67595;SDS011;54410;48.694;8.934;2023-05-07T14:25:56;2.38;;;2.05;;
67595;SDS011;54410;48.694;8.934;2023-05-07T14:28:22;4.18;;;2.70;;
67595;SDS011;54410;48.694;8.934;2023-05-07T14:30:48;3.92;;;2.58;;
67595;SDS011;54410;48.694;8.934;2023-05-07T14:33:14;6.43;;;2.30;;
67595;SDS011;54410;48.694;8.934;2023-05-07T14:35:40;3.00;;;2.05;;
67595;SDS011;54410;48.694;8.934;2023-05-07T14:38:06;2.30;;;2.10;;
67595;SDS011;54410;48.694;8.934;2023-05-07T14:40:32;5.25;;;2.78;;
67595;SDS011;54410;48.694;8.934;2023-05-07T14:42:58;5.65;;;3.67;;
67595;SDS011;54410;48.694;8.934;2023-05-07T14:45:25;3.15;;;2.45;;
67595;SDS011;54410;48.694;8.934;2023-05-07T14:47:51;4.68;;;2.90;;
67595;SDS011;54410;48.694;8.934;2023-05-07T14:50:17;5.28;;;3.70;;
67595;SDS011;54410;48.694;8.934;2023-05-07T14:52:43;21.30;;;11.45;;
67595;SDS011;54410;48.694;8.934;2023-05-07T14:55:09;11.80;;;6.78;;
67595;SDS011;54410;48.694;8.934;2023-05-07T14:57:35;5.45;;;3.95;;
67595;SDS011;54410;48.694;8.934;2023-05-07T15:00:02;6.32;;;3.70;;
67595;SDS011;54410;48.694;8.934;2023-05-07T15:02:29;4.65;;;1.95;;